sensor_id;sensor_type;location;lat;lon;timestamp;P1;durP1;ratioP1;P2;durP2;ratioP2
3991;SDS011;2010;48.194;16.394;2022-07-29T00:01:18;5.20;;;4.00;;
3991;SDS011;2010;48.194;16.394;2022-07-29T00:03:48;6.67;;;4.13;;
3991;SDS011;2010;48.194;16.394;2022-07-29T00:06:16;3.90;;;3.60;;
3991;SDS011;2010;48.194;16.394;2022-07-29T00:08:45;6.80;;;4.30;;
3991;SDS011;2010;48.194;16.394;2022-07-29T00:11:13;4.17;;;3.77;;
3991;SDS011;2010;48.194;16.394;2022-07-29T00:13:41;4.30;;;3.60;;
3991;SDS011;2010;48.194;16.394;2022-07-29T00:16:16;4.07;;;3.77;;
3991;SDS011;2010;48.194;16.394;2022-07-29T00:18:45;4.90;;;3.73;;
3991;SDS011;2010;48.194;16.394;2022-07-29T00:21:14;3.93;;;3.67;;
3991;SDS011;2010;48.194;16.394;2022-07-29T00:23:43;4.17;;;3.80;;
3991;SDS011;2010;48.194;16.394;2022-07-29T00:26:11;11.10;;;4.20;;
3991;SDS011;2010;48.194;16.394;2022-07-29T00:28:40;4.20;;;3.80;;
3991;SDS011;2010;48.194;16.394;2022-07-29T00:31:09;4.33;;;3.93;;
3991;SDS011;2010;48.194;16.394;2022-07-29T00:33:37;5.33;;;4.17;;
3991;SDS011;2010;48.194;16.394;2022-07-29T00:36:05;5.10;;;4.57;;
3991;SDS011;2010;48.194;16.394;2022-07-29T00:38:34;4.50;;;3.50;;
3991;SDS011;2010;48.194;16.394;2022-07-29T00:41:02;4.87;;;4.10;;
3991;SDS011;2010;48.194;16.394;2022-07-29T00:43:30;8.20;;;4.00;;
3991;SDS011;2010;48.194;16.394;2022-07-29T00:45:59;4.53;;;4.17;;
3991;SDS011;2010;48.194;16.394;2022-07-29T00:48:27;3.80;;;3.60;;
3991;SDS011;2010;48.194;16.394;2022-07-29T00:50:56;4.20;;;3.90;;
3991;SDS011;2010;48.194;16.394;2022-07-29T00:53:25;4.27;;;3.87;;
3991;SDS011;2010;48.194;16.394;2022-07-29T00:55:58;5.57;;;4.13;;
3991;SDS011;2010;48.194;16.394;2022-07-29T00:58:26;4.27;;;3.87;;
3991;SDS011;2010;48.194;16.394;2022-07-29T01:00:54;5.27;;;4.20;;
3991;SDS011;2010;48.194;16.394;2022-07-29T01:03:23;4.93;;;4.43;;
3991;SDS011;2010;48.194;16.394;2022-07-29T01:05:51;5.10;;;4.27;;
3991;SDS011;2010;48.194;16.394;2022-07-29T01:08:20;5.17;;;4.77;;
3991;SDS011;2010;48.194;16.394;2022-07-29T01:10:48;7.43;;;4.17;;
3991;SDS011;2010;48.194;16.394;2022-07-29T01:13:18;4.17;;;3.87;;
3991;SDS011;2010;48.194;16.394;2022-07-29T01:15:49;5.77;;;4.10;;
3991;SDS011;2010;48.194;16.394;2022-07-29T01:18:24;4.27;;;3.87;;
3991;SDS011;2010;48.194;16.394;2022-07-29T01:21:07;7.70;;;4.33;;
3991;SDS011;2010;48.194;16.394;2022-07-29T01:23:56;8.03;;;3.90;;
3991;SDS011;2010;48.194;16.394;2022-07-29T01:26:33;4.60;;;4.30;;
3991;SDS011;2010;48.194;16.394;2022-07-29T01:29:11;8.43;;;4.40;;
3991;SDS011;2010;48.194;16.394;2022-07-29T01:31:45;4.43;;;4.03;;
3991;SDS011;2010;48.194;16.394;2022-07-29T01:34:27;9.10;;;4.67;;
3991;SDS011;2010;48.194;16.394;2022-07-29T01:37:01;6.10;;;4.23;;
3991;SDS011;2010;48.194;16.394;2022-07-29T01:39:35;4.83;;;4.30;;
3991;SDS011;2010;48.194;16.394;2022-07-29T01:42:06;4.40;;;4.10;;
3991;SDS011;2010;48.194;16.394;2022-07-29T01:44:45;9.20;;;4.13;;
3991;SDS011;2010;48.194;16.394;2022-07-29T01:47:23;5.33;;;4.83;;
3991;SDS011;2010;48.194;16.394;2022-07-29T01:49:54;4.77;;;4.37;;
3991;SDS011;2010;48.194;16.394;2022-07-29T01:52:25;4.97;;;4.40;;
3991;SDS011;2010;48.194;16.394;2022-07-29T01:54:58;6.40;;;4.53;;
3991;SDS011;2010;48.194;16.394;2022-07-29T01:57:29;4.67;;;4.17;;
3991;SDS011;2010;48.194;16.394;2022-07-29T02:00:01;5.30;;;4.80;;
3991;SDS011;2010;48.194;16.394;2022-07-29T02:02:37;4.47;;;4.07;;
3991;SDS011;2010;48.194;16.394;2022-07-29T02:05:06;5.07;;;4.60;;
3991;SDS011;2010;48.194;16.394;2022-07-29T02:07:37;5.93;;;4.53;;
3991;SDS011;2010;48.194;16.394;2022-07-29T02:10:05;4.77;;;4.37;;
3991;SDS011;2010;48.194;16.394;2022-07-29T02:12:35;5.17;;;4.77;;
3991;SDS011;2010;48.194;16.394;2022-07-29T02:15:08;9.93;;;4.00;;
3991;SDS011;2010;48.194;16.394;2022-07-29T02:17:41;5.10;;;4.70;;
3991;SDS011;2010;48.194;16.394;2022-07-29T02:20:10;4.60;;;4.20;;
3991;SDS011;2010;48.194;16.394;2022-07-29T02:22:39;5.23;;;4.50;;
3991;SDS011;2010;48.194;16.394;2022-07-29T02:25:09;5.10;;;4.70;;
3991;SDS011;2010;48.194;16.394;2022-07-29T02:27:39;5.10;;;4.60;;
3991;SDS011;2010;48.194;16.394;2022-07-29T02:30:10;5.10;;;4.70;;
3991;SDS011;2010;48.194;16.394;2022-07-29T02:32:41;8.80;;;5.20;;
3991;SDS011;2010;48.194;16.394;2022-07-29T02:35:12;5.70;;;5.10;;
3991;SDS011;2010;48.194;16.394;2022-07-29T02:37:42;5.53;;;4.90;;
3991;SDS011;2010;48.194;16.394;2022-07-29T02:40:11;5.70;;;4.97;;
3991;SDS011;2010;48.194;16.394;2022-07-29T02:42:42;5.00;;;4.50;;
3991;SDS011;2010;48.194;16.394;2022-07-29T02:45:14;5.33;;;4.60;;
3991;SDS011;2010;48.194;16.394;2022-07-29T02:47:43;5.07;;;4.67;;
3991;SDS011;2010;48.194;16.394;2022-07-29T02:50:16;6.23;;;4.90;;
3991;SDS011;2010;48.194;16.394;2022-07-29T02:52:47;5.90;;;5.00;;
3991;SDS011;2010;48.194;16.394;2022-07-29T02:55:23;6.10;;;4.90;;
3991;SDS011;2010;48.194;16.394;2022-07-29T02:57:55;5.20;;;4.70;;
3991;SDS011;2010;48.194;16.394;2022-07-29T03:00:27;5.40;;;4.83;;
3991;SDS011;2010;48.194;16.394;2022-07-29T03:02:58;5.60;;;4.40;;
3991;SDS011;2010;48.194;16.394;2022-07-29T03:05:27;7.57;;;4.90;;
3991;SDS011;2010;48.194;16.394;2022-07-29T03:07:57;4.60;;;4.30;;
3991;SDS011;2010;48.194;16.394;2022-07-29T03:10:28;12.80;;;5.60;;
3991;SDS011;2010;48.194;16.394;2022-07-29T03:12:57;5.00;;;4.70;;
3991;SDS011;2010;48.194;16.394;2022-07-29T03:15:27;7.93;;;4.90;;
3991;SDS011;2010;48.194;16.394;2022-07-29T03:17:56;5.63;;;5.13;;
3991;SDS011;2010;48.194;16.394;2022-07-29T03:20:24;7.70;;;5.00;;
3991;SDS011;2010;48.194;16.394;2022-07-29T03:22:52;6.53;;;5.00;;
3991;SDS011;2010;48.194;16.394;2022-07-29T03:25:21;6.00;;;4.40;;
3991;SDS011;2010;48.194;16.394;2022-07-29T03:27:49;5.93;;;5.03;;
3991;SDS011;2010;48.194;16.394;2022-07-29T03:30:17;5.43;;;4.73;;
3991;SDS011;2010;48.194;16.394;2022-07-29T03:32:49;6.20;;;5.00;;
3991;SDS011;2010;48.194;16.394;2022-07-29T03:35:18;8.13;;;4.93;;
3991;SDS011;2010;48.194;16.394;2022-07-29T03:37:47;5.67;;;5.17;;
3991;SDS011;2010;48.194;16.394;2022-07-29T03:40:16;8.13;;;5.33;;
3991;SDS011;2010;48.194;16.394;2022-07-29T03:42:47;6.30;;;5.70;;
3991;SDS011;2010;48.194;16.394;2022-07-29T03:45:18;5.27;;;4.87;;
3991;SDS011;2010;48.194;16.394;2022-07-29T03:47:50;5.20;;;4.80;;
3991;SDS011;2010;48.194;16.394;2022-07-29T03:50:26;7.40;;;5.30;;
3991;SDS011;2010;48.194;16.394;2022-07-29T03:52:55;5.50;;;5.10;;
3991;SDS011;2010;48.194;16.394;2022-07-29T03:55:23;5.50;;;5.00;;
3991;SDS011;2010;48.194;16.394;2022-07-29T03:57:52;6.50;;;5.70;;
3991;SDS011;2010;48.194;16.394;2022-07-29T04:00:21;6.23;;;5.40;;
3991;SDS011;2010;48.194;16.394;2022-07-29T04:02:51;6.23;;;5.73;;
3991;SDS011;2010;48.194;16.394;2022-07-29T04:05:19;5.60;;;5.07;;
3991;SDS011;2010;48.194;16.394;2022-07-29T04:07:47;5.40;;;5.00;;
3991;SDS011;2010;48.194;16.394;2022-07-29T04:10:16;7.33;;;5.20;;
3991;SDS011;2010;48.194;16.394;2022-07-29T04:12:57;9.93;;;6.10;;
3991;SDS011;2010;48.194;16.394;2022-07-29T04:15:25;8.13;;;5.10;;
3991;SDS011;2010;48.194;16.394;2022-07-29T04:17:58;7.77;;;6.50;;
3991;SDS011;2010;48.194;16.394;2022-07-29T04:20:27;8.50;;;5.13;;
3991;SDS011;2010;48.194;16.394;2022-07-29T04:22:55;6.00;;;4.80;;
3991;SDS011;2010;48.194;16.394;2022-07-29T04:25:23;5.47;;;5.00;;
3991;SDS011;2010;48.194;16.394;2022-07-29T04:27:51;5.90;;;5.33;;
3991;SDS011;2010;48.194;16.394;2022-07-29T04:30:32;6.20;;;5.47;;
3991;SDS011;2010;48.194;16.394;2022-07-29T04:33:03;5.07;;;4.60;;
3991;SDS011;2010;48.194;16.394;2022-07-29T04:35:33;10.37;;;5.67;;
3991;SDS011;2010;48.194;16.394;2022-07-29T04:38:11;6.00;;;5.40;;
3991;SDS011;2010;48.194;16.394;2022-07-29T04:40:42;7.80;;;5.80;;
3991;SDS011;2010;48.194;16.394;2022-07-29T04:43:12;6.20;;;5.50;;
3991;SDS011;2010;48.194;16.394;2022-07-29T04:45:41;7.90;;;5.50;;
3991;SDS011;2010;48.194;16.394;2022-07-29T04:48:11;5.37;;;4.90;;
3991;SDS011;2010;48.194;16.394;2022-07-29T04:50:39;5.50;;;5.00;;
3991;SDS011;2010;48.194;16.394;2022-07-29T04:53:07;18.67;;;5.40;;
3991;SDS011;2010;48.194;16.394;2022-07-29T04:55:35;6.47;;;5.63;;
3991;SDS011;2010;48.194;16.394;2022-07-29T04:58:04;6.43;;;5.00;;
3991;SDS011;2010;48.194;16.394;2022-07-29T05:00:34;5.47;;;4.97;;
3991;SDS011;2010;48.194;16.394;2022-07-29T05:03:02;7.83;;;4.83;;
3991;SDS011;2010;48.194;16.394;2022-07-29T05:05:32;5.43;;;4.93;;
3991;SDS011;2010;48.194;16.394;2022-07-29T05:08:00;5.43;;;4.93;;
3991;SDS011;2010;48.194;16.394;2022-07-29T05:10:28;5.73;;;4.77;;
3991;SDS011;2010;48.194;16.394;2022-07-29T05:12:56;6.40;;;4.53;;
3991;SDS011;2010;48.194;16.394;2022-07-29T05:15:25;6.97;;;5.20;;
3991;SDS011;2010;48.194;16.394;2022-07-29T05:17:53;7.87;;;4.97;;
3991;SDS011;2010;48.194;16.394;2022-07-29T05:20:21;5.63;;;5.13;;
3991;SDS011;2010;48.194;16.394;2022-07-29T05:22:56;7.83;;;5.60;;
3991;SDS011;2010;48.194;16.394;2022-07-29T05:25:24;5.70;;;5.17;;
3991;SDS011;2010;48.194;16.394;2022-07-29T05:28:10;8.20;;;5.03;;
3991;SDS011;2010;48.194;16.394;2022-07-29T05:30:38;5.33;;;4.93;;
3991;SDS011;2010;48.194;16.394;2022-07-29T05:33:06;5.80;;;5.27;;
3991;SDS011;2010;48.194;16.394;2022-07-29T05:35:55;5.83;;;5.30;;
3991;SDS011;2010;48.194;16.394;2022-07-29T05:38:49;7.80;;;5.33;;
3991;SDS011;2010;48.194;16.394;2022-07-29T05:41:18;5.57;;;4.93;;
3991;SDS011;2010;48.194;16.394;2022-07-29T05:43:46;5.20;;;4.80;;
3991;SDS011;2010;48.194;16.394;2022-07-29T05:46:15;8.77;;;5.50;;
3991;SDS011;2010;48.194;16.394;2022-07-29T05:48:43;4.60;;;4.20;;
3991;SDS011;2010;48.194;16.394;2022-07-29T05:51:11;5.57;;;4.93;;
3991;SDS011;2010;48.194;16.394;2022-07-29T05:53:39;8.50;;;4.50;;
3991;SDS011;2010;48.194;16.394;2022-07-29T05:56:09;7.17;;;5.10;;
3991;SDS011;2010;48.194;16.394;2022-07-29T05:58:37;5.77;;;5.10;;
3991;SDS011;2010;48.194;16.394;2022-07-29T06:01:06;7.67;;;5.20;;
3991;SDS011;2010;48.194;16.394;2022-07-29T06:03:40;6.97;;;4.90;;
3991;SDS011;2010;48.194;16.394;2022-07-29T06:06:09;5.43;;;4.80;;
3991;SDS011;2010;48.194;16.394;2022-07-29T06:08:37;5.10;;;4.60;;
3991;SDS011;2010;48.194;16.394;2022-07-29T06:11:06;4.83;;;4.43;;
3991;SDS011;2010;48.194;16.394;2022-07-29T06:13:36;8.73;;;5.30;;
3991;SDS011;2010;48.194;16.394;2022-07-29T06:16:05;4.97;;;4.43;;
3991;SDS011;2010;48.194;16.394;2022-07-29T06:18:33;5.17;;;4.67;;
3991;SDS011;2010;48.194;16.394;2022-07-29T06:21:06;9.83;;;4.90;;
3991;SDS011;2010;48.194;16.394;2022-07-29T06:23:36;6.63;;;4.70;;
3991;SDS011;2010;48.194;16.394;2022-07-29T06:26:08;9.07;;;5.70;;
3991;SDS011;2010;48.194;16.394;2022-07-29T06:28:36;9.33;;;6.00;;
3991;SDS011;2010;48.194;16.394;2022-07-29T06:31:05;10.07;;;5.33;;
3991;SDS011;2010;48.194;16.394;2022-07-29T06:33:35;6.90;;;5.87;;
3991;SDS011;2010;48.194;16.394;2022-07-29T06:36:04;5.50;;;5.00;;
3991;SDS011;2010;48.194;16.394;2022-07-29T06:38:32;8.40;;;5.27;;
3991;SDS011;2010;48.194;16.394;2022-07-29T06:41:11;6.47;;;5.50;;
3991;SDS011;2010;48.194;16.394;2022-07-29T06:43:42;5.93;;;5.33;;
3991;SDS011;2010;48.194;16.394;2022-07-29T06:46:20;6.43;;;5.93;;
3991;SDS011;2010;48.194;16.394;2022-07-29T06:48:49;6.83;;;6.13;;
3991;SDS011;2010;48.194;16.394;2022-07-29T06:51:19;5.70;;;4.77;;
3991;SDS011;2010;48.194;16.394;2022-07-29T06:53:50;5.63;;;5.13;;
3991;SDS011;2010;48.194;16.394;2022-07-29T06:56:30;6.10;;;5.50;;
3991;SDS011;2010;48.194;16.394;2022-07-29T06:59:06;10.07;;;5.20;;
3991;SDS011;2010;48.194;16.394;2022-07-29T07:01:35;5.77;;;5.17;;
3991;SDS011;2010;48.194;16.394;2022-07-29T07:04:03;5.30;;;4.90;;
3991;SDS011;2010;48.194;16.394;2022-07-29T07:06:35;5.23;;;4.83;;
3991;SDS011;2010;48.194;16.394;2022-07-29T07:09:04;7.43;;;5.70;;
3991;SDS011;2010;48.194;16.394;2022-07-29T07:11:34;5.43;;;4.90;;
3991;SDS011;2010;48.194;16.394;2022-07-29T07:14:02;5.70;;;5.30;;
3991;SDS011;2010;48.194;16.394;2022-07-29T07:16:31;6.03;;;5.30;;
3991;SDS011;2010;48.194;16.394;2022-07-29T07:18:59;5.77;;;5.20;;
3991;SDS011;2010;48.194;16.394;2022-07-29T07:21:27;6.23;;;5.43;;
3991;SDS011;2010;48.194;16.394;2022-07-29T07:23:57;5.30;;;4.80;;
3991;SDS011;2010;48.194;16.394;2022-07-29T07:26:25;6.00;;;4.67;;
3991;SDS011;2010;48.194;16.394;2022-07-29T07:28:55;7.83;;;5.53;;
3991;SDS011;2010;48.194;16.394;2022-07-29T07:31:23;5.83;;;5.30;;
3991;SDS011;2010;48.194;16.394;2022-07-29T07:33:51;6.00;;;5.50;;
3991;SDS011;2010;48.194;16.394;2022-07-29T07:36:20;5.43;;;4.90;;
3991;SDS011;2010;48.194;16.394;2022-07-29T07:38:48;7.03;;;4.80;;
3991;SDS011;2010;48.194;16.394;2022-07-29T07:41:16;6.10;;;4.73;;
3991;SDS011;2010;48.194;16.394;2022-07-29T07:43:45;7.80;;;4.90;;
3991;SDS011;2010;48.194;16.394;2022-07-29T07:46:14;5.50;;;5.10;;
3991;SDS011;2010;48.194;16.394;2022-07-29T07:48:43;7.17;;;4.40;;
3991;SDS011;2010;48.194;16.394;2022-07-29T07:51:11;6.20;;;4.97;;
3991;SDS011;2010;48.194;16.394;2022-07-29T07:53:39;12.87;;;6.00;;
3991;SDS011;2010;48.194;16.394;2022-07-29T07:56:08;5.73;;;5.23;;
3991;SDS011;2010;48.194;16.394;2022-07-29T07:58:38;6.57;;;5.13;;
3991;SDS011;2010;48.194;16.394;2022-07-29T08:01:07;5.43;;;4.63;;
3991;SDS011;2010;48.194;16.394;2022-07-29T08:03:40;5.37;;;4.53;;
3991;SDS011;2010;48.194;16.394;2022-07-29T08:06:09;8.80;;;5.13;;
3991;SDS011;2010;48.194;16.394;2022-07-29T08:08:37;5.87;;;5.23;;
3991;SDS011;2010;48.194;16.394;2022-07-29T08:11:05;6.27;;;5.53;;
3991;SDS011;2010;48.194;16.394;2022-07-29T08:13:35;7.20;;;4.87;;
3991;SDS011;2010;48.194;16.394;2022-07-29T08:16:06;7.77;;;5.47;;
3991;SDS011;2010;48.194;16.394;2022-07-29T08:18:43;6.30;;;5.70;;
3991;SDS011;2010;48.194;16.394;2022-07-29T08:21:13;5.70;;;5.30;;
3991;SDS011;2010;48.194;16.394;2022-07-29T08:23:42;7.27;;;5.60;;
3991;SDS011;2010;48.194;16.394;2022-07-29T08:26:26;6.80;;;6.00;;
3991;SDS011;2010;48.194;16.394;2022-07-29T08:28:54;6.73;;;5.80;;
3991;SDS011;2010;48.194;16.394;2022-07-29T08:31:22;6.40;;;5.40;;
3991;SDS011;2010;48.194;16.394;2022-07-29T08:33:52;5.90;;;5.40;;
3991;SDS011;2010;48.194;16.394;2022-07-29T08:36:22;9.53;;;6.00;;
3991;SDS011;2010;48.194;16.394;2022-07-29T08:38:51;6.30;;;5.70;;
3991;SDS011;2010;48.194;16.394;2022-07-29T08:41:19;4.53;;;4.10;;
3991;SDS011;2010;48.194;16.394;2022-07-29T08:43:48;6.10;;;5.03;;
3991;SDS011;2010;48.194;16.394;2022-07-29T08:46:17;6.13;;;5.37;;
3991;SDS011;2010;48.194;16.394;2022-07-29T08:48:48;5.70;;;5.20;;
3991;SDS011;2010;48.194;16.394;2022-07-29T08:51:19;7.50;;;5.83;;
3991;SDS011;2010;48.194;16.394;2022-07-29T08:53:49;5.87;;;5.27;;
3991;SDS011;2010;48.194;16.394;2022-07-29T08:56:18;5.30;;;4.80;;
3991;SDS011;2010;48.194;16.394;2022-07-29T08:58:47;9.03;;;5.93;;
3991;SDS011;2010;48.194;16.394;2022-07-29T09:01:21;6.27;;;4.50;;
3991;SDS011;2010;48.194;16.394;2022-07-29T09:04:03;5.73;;;5.20;;
3991;SDS011;2010;48.194;16.394;2022-07-29T09:06:34;8.83;;;5.27;;
3991;SDS011;2010;48.194;16.394;2022-07-29T09:09:05;6.23;;;5.63;;
3991;SDS011;2010;48.194;16.394;2022-07-29T09:11:35;9.03;;;5.70;;
3991;SDS011;2010;48.194;16.394;2022-07-29T09:14:03;6.10;;;5.17;;
3991;SDS011;2010;48.194;16.394;2022-07-29T09:16:45;6.70;;;4.83;;
3991;SDS011;2010;48.194;16.394;2022-07-29T09:19:23;5.87;;;5.30;;
3991;SDS011;2010;48.194;16.394;2022-07-29T09:21:58;6.47;;;5.80;;
3991;SDS011;2010;48.194;16.394;2022-07-29T09:24:37;6.43;;;5.20;;
3991;SDS011;2010;48.194;16.394;2022-07-29T09:27:17;6.80;;;6.10;;
3991;SDS011;2010;48.194;16.394;2022-07-29T09:29:55;5.97;;;5.37;;
3991;SDS011;2010;48.194;16.394;2022-07-29T09:32:24;5.50;;;5.00;;
3991;SDS011;2010;48.194;16.394;2022-07-29T09:37:43;7.30;;;4.57;;
3991;SDS011;2010;48.194;16.394;2022-07-29T09:40:13;7.53;;;5.40;;
3991;SDS011;2010;48.194;16.394;2022-07-29T09:42:43;5.90;;;5.30;;
3991;SDS011;2010;48.194;16.394;2022-07-29T09:45:11;6.00;;;5.20;;
3991;SDS011;2010;48.194;16.394;2022-07-29T09:47:41;6.53;;;5.93;;
3991;SDS011;2010;48.194;16.394;2022-07-29T09:50:11;8.20;;;5.60;;
3991;SDS011;2010;48.194;16.394;2022-07-29T09:52:48;5.30;;;4.80;;
3991;SDS011;2010;48.194;16.394;2022-07-29T09:55:17;5.10;;;4.70;;
3991;SDS011;2010;48.194;16.394;2022-07-29T09:57:46;5.63;;;5.23;;
3991;SDS011;2010;48.194;16.394;2022-07-29T10:00:15;6.17;;;5.13;;
3991;SDS011;2010;48.194;16.394;2022-07-29T10:02:45;7.77;;;5.13;;
3991;SDS011;2010;48.194;16.394;2022-07-29T10:05:18;5.67;;;4.93;;
3991;SDS011;2010;48.194;16.394;2022-07-29T10:07:50;8.07;;;4.77;;
3991;SDS011;2010;48.194;16.394;2022-07-29T10:10:23;8.00;;;5.77;;
3991;SDS011;2010;48.194;16.394;2022-07-29T10:12:55;8.73;;;5.23;;
3991;SDS011;2010;48.194;16.394;2022-07-29T10:15:32;6.27;;;5.40;;
3991;SDS011;2010;48.194;16.394;2022-07-29T10:18:03;7.63;;;4.83;;
3991;SDS011;2010;48.194;16.394;2022-07-29T10:20:32;6.13;;;5.00;;
3991;SDS011;2010;48.194;16.394;2022-07-29T10:23:02;5.07;;;4.57;;
3991;SDS011;2010;48.194;16.394;2022-07-29T10:25:31;6.40;;;4.97;;
3991;SDS011;2010;48.194;16.394;2022-07-29T10:27:59;7.40;;;4.80;;
3991;SDS011;2010;48.194;16.394;2022-07-29T10:30:27;7.13;;;4.50;;
3991;SDS011;2010;48.194;16.394;2022-07-29T10:33:04;4.93;;;4.30;;
3991;SDS011;2010;48.194;16.394;2022-07-29T10:35:48;5.43;;;4.93;;
3991;SDS011;2010;48.194;16.394;2022-07-29T10:38:34;4.90;;;4.50;;
3991;SDS011;2010;48.194;16.394;2022-07-29T10:44:18;5.30;;;4.90;;
3991;SDS011;2010;48.194;16.394;2022-07-29T10:46:49;5.60;;;4.73;;
3991;SDS011;2010;48.194;16.394;2022-07-29T10:49:19;6.30;;;4.90;;
3991;SDS011;2010;48.194;16.394;2022-07-29T10:51:54;8.20;;;4.50;;
3991;SDS011;2010;48.194;16.394;2022-07-29T10:54:39;9.17;;;5.27;;
3991;SDS011;2010;48.194;16.394;2022-07-29T10:57:13;8.43;;;3.93;;
3991;SDS011;2010;48.194;16.394;2022-07-29T10:59:43;5.37;;;4.47;;
3991;SDS011;2010;48.194;16.394;2022-07-29T11:05:16;7.93;;;4.67;;
3991;SDS011;2010;48.194;16.394;2022-07-29T11:14:18;5.43;;;5.03;;
3991;SDS011;2010;48.194;16.394;2022-07-29T11:17:02;4.47;;;4.20;;
3991;SDS011;2010;48.194;16.394;2022-07-29T11:19:32;8.30;;;5.03;;
3991;SDS011;2010;48.194;16.394;2022-07-29T11:22:01;5.17;;;4.67;;
3991;SDS011;2010;48.194;16.394;2022-07-29T11:24:31;5.33;;;4.90;;
3991;SDS011;2010;48.194;16.394;2022-07-29T11:27:08;7.33;;;5.00;;
3991;SDS011;2010;48.194;16.394;2022-07-29T11:29:47;9.60;;;4.63;;
3991;SDS011;2010;48.194;16.394;2022-07-29T11:32:21;4.40;;;3.83;;
3991;SDS011;2010;48.194;16.394;2022-07-29T11:38:24;5.50;;;4.93;;
3991;SDS011;2010;48.194;16.394;2022-07-29T11:43:49;10.57;;;4.83;;
3991;SDS011;2010;48.194;16.394;2022-07-29T11:49:19;5.50;;;4.30;;
3991;SDS011;2010;48.194;16.394;2022-07-29T11:51:58;4.70;;;4.23;;
3991;SDS011;2010;48.194;16.394;2022-07-29T11:54:30;4.80;;;4.40;;
3991;SDS011;2010;48.194;16.394;2022-07-29T11:57:19;4.83;;;4.23;;
3991;SDS011;2010;48.194;16.394;2022-07-29T11:59:48;4.97;;;4.57;;
3991;SDS011;2010;48.194;16.394;2022-07-29T12:02:17;5.37;;;4.90;;
3991;SDS011;2010;48.194;16.394;2022-07-29T12:05:04;4.83;;;4.47;;
3991;SDS011;2010;48.194;16.394;2022-07-29T12:07:37;4.83;;;4.00;;
3991;SDS011;2010;48.194;16.394;2022-07-29T12:10:10;4.50;;;4.20;;
3991;SDS011;2010;48.194;16.394;2022-07-29T12:12:55;4.50;;;4.20;;
3991;SDS011;2010;48.194;16.394;2022-07-29T12:15:24;9.23;;;4.83;;
3991;SDS011;2010;48.194;16.394;2022-07-29T12:18:14;6.83;;;4.40;;
3991;SDS011;2010;48.194;16.394;2022-07-29T12:20:45;4.67;;;4.30;;
3991;SDS011;2010;48.194;16.394;2022-07-29T12:23:14;6.30;;;3.83;;
3991;SDS011;2010;48.194;16.394;2022-07-29T12:25:44;4.80;;;4.27;;
3991;SDS011;2010;48.194;16.394;2022-07-29T12:28:15;6.10;;;4.43;;
3991;SDS011;2010;48.194;16.394;2022-07-29T12:30:52;5.50;;;4.30;;
3991;SDS011;2010;48.194;16.394;2022-07-29T12:33:23;5.00;;;3.93;;
3991;SDS011;2010;48.194;16.394;2022-07-29T12:35:53;4.87;;;4.47;;
3991;SDS011;2010;48.194;16.394;2022-07-29T12:38:33;4.50;;;4.10;;
3991;SDS011;2010;48.194;16.394;2022-07-29T12:41:02;6.60;;;4.33;;
3991;SDS011;2010;48.194;16.394;2022-07-29T12:43:31;4.37;;;3.80;;
3991;SDS011;2010;48.194;16.394;2022-07-29T12:46:10;5.93;;;4.00;;
3991;SDS011;2010;48.194;16.394;2022-07-29T12:48:42;5.47;;;4.07;;
3991;SDS011;2010;48.194;16.394;2022-07-29T12:51:11;5.17;;;4.17;;
3991;SDS011;2010;48.194;16.394;2022-07-29T12:53:41;4.50;;;4.10;;
3991;SDS011;2010;48.194;16.394;2022-07-29T12:56:14;4.83;;;4.43;;
3991;SDS011;2010;48.194;16.394;2022-07-29T12:59:11;6.57;;;4.07;;
3991;SDS011;2010;48.194;16.394;2022-07-29T13:01:40;5.40;;;4.90;;
3991;SDS011;2010;48.194;16.394;2022-07-29T13:04:10;8.20;;;4.57;;
3991;SDS011;2010;48.194;16.394;2022-07-29T13:06:38;4.60;;;3.90;;
3991;SDS011;2010;48.194;16.394;2022-07-29T13:09:17;5.80;;;4.77;;
3991;SDS011;2010;48.194;16.394;2022-07-29T13:11:47;5.50;;;5.00;;
3991;SDS011;2010;48.194;16.394;2022-07-29T13:14:29;4.73;;;4.30;;
3991;SDS011;2010;48.194;16.394;2022-07-29T13:17:02;4.23;;;3.93;;
3991;SDS011;2010;48.194;16.394;2022-07-29T13:19:34;4.20;;;3.90;;
3991;SDS011;2010;48.194;16.394;2022-07-29T13:22:03;5.40;;;4.60;;
3991;SDS011;2010;48.194;16.394;2022-07-29T13:24:32;4.90;;;4.50;;
3991;SDS011;2010;48.194;16.394;2022-07-29T13:27:02;6.50;;;4.97;;
3991;SDS011;2010;48.194;16.394;2022-07-29T13:29:31;4.50;;;4.20;;
3991;SDS011;2010;48.194;16.394;2022-07-29T13:31:59;9.63;;;5.40;;
3991;SDS011;2010;48.194;16.394;2022-07-29T13:34:28;5.53;;;4.03;;
3991;SDS011;2010;48.194;16.394;2022-07-29T13:36:58;5.23;;;4.83;;
3991;SDS011;2010;48.194;16.394;2022-07-29T13:39:26;6.40;;;5.00;;
3991;SDS011;2010;48.194;16.394;2022-07-29T13:41:54;8.13;;;5.00;;
3991;SDS011;2010;48.194;16.394;2022-07-29T13:44:23;6.57;;;4.17;;
3991;SDS011;2010;48.194;16.394;2022-07-29T13:46:51;4.73;;;4.23;;
3991;SDS011;2010;48.194;16.394;2022-07-29T13:49:19;5.77;;;4.87;;
3991;SDS011;2010;48.194;16.394;2022-07-29T13:51:48;7.03;;;4.87;;
3991;SDS011;2010;48.194;16.394;2022-07-29T13:54:18;5.00;;;4.40;;
3991;SDS011;2010;48.194;16.394;2022-07-29T13:56:47;4.37;;;4.07;;
3991;SDS011;2010;48.194;16.394;2022-07-29T13:59:15;5.97;;;5.40;;
3991;SDS011;2010;48.194;16.394;2022-07-29T14:01:43;6.20;;;4.90;;
3991;SDS011;2010;48.194;16.394;2022-07-29T14:04:12;5.33;;;4.83;;
3991;SDS011;2010;48.194;16.394;2022-07-29T14:06:40;6.53;;;5.53;;
3991;SDS011;2010;48.194;16.394;2022-07-29T14:09:09;6.70;;;6.00;;
3991;SDS011;2010;48.194;16.394;2022-07-29T14:11:38;7.17;;;5.67;;
3991;SDS011;2010;48.194;16.394;2022-07-29T14:14:07;9.13;;;6.30;;
3991;SDS011;2010;48.194;16.394;2022-07-29T14:16:36;8.00;;;5.70;;
3991;SDS011;2010;48.194;16.394;2022-07-29T14:19:14;8.70;;;6.50;;
3991;SDS011;2010;48.194;16.394;2022-07-29T14:21:42;9.63;;;7.17;;
3991;SDS011;2010;48.194;16.394;2022-07-29T14:24:11;7.73;;;7.13;;
3991;SDS011;2010;48.194;16.394;2022-07-29T14:26:48;11.07;;;8.10;;
3991;SDS011;2010;48.194;16.394;2022-07-29T14:29:16;9.57;;;8.67;;
3991;SDS011;2010;48.194;16.394;2022-07-29T14:31:45;8.20;;;7.50;;
3991;SDS011;2010;48.194;16.394;2022-07-29T14:34:14;8.50;;;7.63;;
3991;SDS011;2010;48.194;16.394;2022-07-29T14:36:42;8.90;;;8.20;;
3991;SDS011;2010;48.194;16.394;2022-07-29T14:39:10;9.27;;;7.87;;
3991;SDS011;2010;48.194;16.394;2022-07-29T14:41:39;8.87;;;7.60;;
3991;SDS011;2010;48.194;16.394;2022-07-29T14:44:08;10.03;;;8.17;;
3991;SDS011;2010;48.194;16.394;2022-07-29T14:46:37;8.57;;;7.77;;
3991;SDS011;2010;48.194;16.394;2022-07-29T14:49:05;10.23;;;8.70;;
3991;SDS011;2010;48.194;16.394;2022-07-29T14:51:35;9.50;;;8.00;;
3991;SDS011;2010;48.194;16.394;2022-07-29T14:54:05;9.40;;;8.50;;
3991;SDS011;2010;48.194;16.394;2022-07-29T14:56:34;8.60;;;7.80;;
3991;SDS011;2010;48.194;16.394;2022-07-29T14:59:13;8.93;;;7.07;;
3991;SDS011;2010;48.194;16.394;2022-07-29T15:01:41;8.03;;;7.23;;
3991;SDS011;2010;48.194;16.394;2022-07-29T15:04:09;7.47;;;6.70;;
3991;SDS011;2010;48.194;16.394;2022-07-29T15:06:37;9.27;;;6.87;;
3991;SDS011;2010;48.194;16.394;2022-07-29T15:09:06;9.43;;;8.00;;
3991;SDS011;2010;48.194;16.394;2022-07-29T15:11:34;8.47;;;7.67;;
3991;SDS011;2010;48.194;16.394;2022-07-29T15:14:04;8.90;;;7.97;;
3991;SDS011;2010;48.194;16.394;2022-07-29T15:16:36;7.97;;;7.17;;
3991;SDS011;2010;48.194;16.394;2022-07-29T15:19:09;7.60;;;6.90;;
3991;SDS011;2010;48.194;16.394;2022-07-29T15:21:37;8.13;;;7.43;;
3991;SDS011;2010;48.194;16.394;2022-07-29T15:24:13;8.00;;;7.30;;
3991;SDS011;2010;48.194;16.394;2022-07-29T15:26:42;7.60;;;6.90;;
3991;SDS011;2010;48.194;16.394;2022-07-29T15:29:11;7.77;;;7.03;;
3991;SDS011;2010;48.194;16.394;2022-07-29T15:31:41;8.40;;;7.47;;
3991;SDS011;2010;48.194;16.394;2022-07-29T15:34:10;8.97;;;8.23;;
3991;SDS011;2010;48.194;16.394;2022-07-29T15:36:38;7.80;;;7.10;;
3991;SDS011;2010;48.194;16.394;2022-07-29T15:39:22;10.20;;;8.90;;
3991;SDS011;2010;48.194;16.394;2022-07-29T15:41:50;8.67;;;7.90;;
3991;SDS011;2010;48.194;16.394;2022-07-29T15:44:18;7.93;;;7.10;;
3991;SDS011;2010;48.194;16.394;2022-07-29T15:46:48;10.10;;;8.13;;
3991;SDS011;2010;48.194;16.394;2022-07-29T15:49:33;10.20;;;8.60;;